Погода Росонна 2 недели

Чубут, Аргентина

27 января-09 февраля
  • 27января
    Сегодня
    +13°
    +27°
    Ясно и безоблачно
    ВремяПогодаТемператураВлажностьДавлениеВетер, м/сВероятность осадков
    00:00Ясно и безоблачно+17°C85 %757 мм2.8 м/с5 %
    03:00Ясно и безоблачно+15°C39 %758 мм4.5 м/с5 %
    06:00Ясно и безоблачно+13°C48 %759 мм3.6 м/с5 %
    09:00Практически безоблачно+17°C39 %760 мм5.1 м/с5 %
    12:00Практически безоблачно+21°C33 %760 мм4.1 м/с5 %
    15:00Ясно и безоблачно+24°C34 %759 мм4.0 м/с5 %
    18:00Ясно и безоблачно+27°C40 %758 мм4.3 м/с5 %
    21:00Ясно и безоблачно+22°C44 %758 мм6.0 м/с5 %
  • 28января
    Суббота
    +17°
    +32°
    Ясно и безоблачно
    ВремяПогодаТемператураВлажностьДавлениеВетер, м/сВероятность осадков
    00:00Практически безоблачно+17°C57 %759 мм4.7 м/с5 %
    03:00Облачно с прояснениями+15°C65 %758 мм2.9 м/с5 %
    06:00Ясно и безоблачно+14°C64 %759 мм2.5 м/с5 %
    09:00Ясно и безоблачно+22°C40 %760 мм4.5 м/с5 %
    12:00Ясно и безоблачно+26°C35 %760 мм5.0 м/с5 %
    15:00Ясно и безоблачно+30°C34 %760 мм4.5 м/с5 %
    18:00Ясно и безоблачно+32°C34 %759 мм4.2 м/с5 %
    21:00Ясно и безоблачно+26°C41 %759 мм5.8 м/с5 %
  • 29января
    Воскресенье
    +24°
    +42°
    Ясно и безоблачно
    ВремяПогодаТемператураВлажностьДавлениеВетер, м/сВероятность осадков
    00:00Ясно и безоблачно+20°C50 %760 мм4.4 м/с5 %
    03:00Ясно и безоблачно+18°C54 %759 мм4.0 м/с5 %
    06:00Ясно и безоблачно+17°C70 %758 мм3.6 м/с5 %
    09:00Ясно и безоблачно+26°C45 %757 мм3.9 м/с5 %
    12:00Ясно и безоблачно+35°C25 %756 мм5.8 м/с5 %
    15:00Ясно и безоблачно+40°C35 %754 мм5.3 м/с5 %
    18:00Ясно и безоблачно+41°C28 %751 мм7.9 м/с5 %
    21:00Ясно и безоблачно+37°C26 %751 мм9.8 м/с7 %
  • 30января
    Понедельник
    +13°
    +29°
    Ясно и безоблачно
    ВремяПогодаТемператураВлажностьДавлениеВетер, м/сВероятность осадков
    00:00Ясно и безоблачно+30°C31 %750 мм8.0 м/с12 %
    03:00Ясно и безоблачно+29°C26 %750 мм8.1 м/с18 %
    06:00Ясно и безоблачно+25°C40 %752 мм3.6 м/с20 %
    09:00Практически безоблачно+26°C38 %755 мм6.0 м/с23 %
    12:00Небольшая облачность+29°C39 %756 мм5.8 м/с34 %
    15:00Ясно и безоблачно+24°C50 %757 мм8.7 м/с19 %
    18:00Ясно и безоблачно+20°C61 %758 мм9.1 м/с12 %
    21:00Ясно и безоблачно+18°C68 %760 мм6.6 м/с20 %
  • 31января
    Вторник
    +10°
    +21°
    Ясно и безоблачно
    ВремяПогодаТемператураВлажностьДавлениеВетер, м/сВероятность осадков
    00:00Пасмурно, сплошная облачность+16°C71 %761 мм5.2 м/с18 %
    03:00Облачно с прояснениями+14°C73 %762 мм3.5 м/с14 %
    06:00Облачно с прояснениями+14°C71 %762 мм2.6 м/с24 %
    09:00Ясно и безоблачно+17°C59 %763 мм3.5 м/с20 %
    12:00Ясно и безоблачно+20°C53 %764 мм5.5 м/с17 %
    15:00Ясно и безоблачно+21°C53 %764 мм6.1 м/с4 %
    18:00Ясно и безоблачно+20°C56 %763 мм6.9 м/с4 %
    21:00Ясно и безоблачно+17°C64 %764 мм5.0 м/с7 %
Мы используем cookies
Соглашаюсь